^^
Station Historical Data
 
Daily Summary for October 22, 2018 Units:  English    Metric   Both
« Previous Day
Next Day »
Daily Weekly Monthly Yearly Custom
  Current: High: Low: Average:
Temperature: 46.4 °F 61.7 °F 37.8 °F 53.5 °F
Dew Point: 36.4 °F 43.2 °F 36.2 °F 39.2 °F
Humidity: 68% 94% 44% 60%
Wind Speed: 0mph 0mph 0mph 0mph
Wind Gust: 0mph 0mph - -
WindCalm - - North
Pressure: 28.94 in 28.94 in 28.73 in -
Precipitation: 0 in      
Historical Graphs
 
 
Tabular Data for October 22, 2018
Time Temperature Dew Point Pressure Wind Wind Speed Wind Gust Humidity Rainfall Rate (Hourly) solar Conditions
10:09 37.8 °F 36.2 °F 28.76 in Calm     94% 0 in 385.50 W/m2 CLR
10:14 37.8 °F 36.2 °F 28.76 in Calm     94% 0 in 385.50 W/m2 CLR
10:19 37.8 °F 36.2 °F 28.76 in Calm     94% 0 in 385.50 W/m2 CLR
10:24 40.8 °F 37.5 °F 28.73 in Calm     88% 0 in 478.40 W/m2 CLR
10:29 42.1 °F 38.2 °F 28.73 in Calm     86% 0 in 331.00 W/m2 CLR
10:34 43.2 °F 38.3 °F 28.73 in Calm     83% 0 in 314.80 W/m2 CLR
10:39 43.9 °F 38.1 °F 28.76 in Calm     80% 0 in 289.60 W/m2 CLR
10:44 43.9 °F 38.1 °F 28.76 in Calm     80% 0 in 289.60 W/m2 CLR
10:49 45.7 °F 39.2 °F 28.79 in Calm     78% 0 in 423.90 W/m2 CLR
10:54 46.9 °F 39.1 °F 28.82 in Calm     74% 0 in 877.40 W/m2 CLR
10:59 48 °F 38.7 °F 28.85 in Calm     70% 0 in 351.00 W/m2 CLR
11:04 48 °F 38.7 °F 28.85 in Calm     70% 0 in 880.40 W/m2 CLR
11:09 49.6 °F 39.5 °F 28.85 in Calm     68% 0 in 881.40 W/m2 CLR
11:14 49.6 °F 39.5 °F 28.85 in Calm     68% 0 in 881.40 W/m2 CLR
11:19 51.4 °F 40.1 °F 28.88 in Calm     65% 0 in 884.40 W/m2 CLR
11:24 52.2 °F 40.3 °F 28.88 in Calm     64% 0 in 884.40 W/m2 CLR
11:29 52.3 °F 39.7 °F 28.88 in Calm     62% 0 in 886.50 W/m2 CLR
11:34 52.9 °F 40.2 °F 28.88 in Calm     62% 0 in 887.50 W/m2 CLR
11:39 53.8 °F 40.6 °F 28.88 in Calm     61% 0 in 886.50 W/m2 CLR
11:44 54.7 °F 41.1 °F 28.88 in Calm     60% 0 in 888.50 W/m2 CLR
11:49 54.9 °F 40.8 °F 28.88 in Calm     59% 0 in 890.50 W/m2 CLR
11:54 54.9 °F 40.8 °F 28.88 in Calm     59% 0 in 890.50 W/m2 CLR
11:59 55.9 °F 41.4 °F 28.88 in Calm     58% 0 in 891.50 W/m2 CLR
12:04 56.8 °F 41.8 °F 28.88 in Calm     57% 0 in 891.50 W/m2 CLR
12:09 57 °F 41.5 °F 28.88 in Calm     56% 0 in 892.50 W/m2 CLR
12:14 57.7 °F 42.1 °F 28.88 in Calm     56% 0 in 893.50 W/m2 CLR
12:19 57.7 °F 42.1 °F 28.88 in Calm     56% 0 in 893.50 W/m2 CLR
12:24 57 °F 41.5 °F 28.88 in Calm     56% 0 in 505.00 W/m2 CLR
12:29 58.6 °F 42.5 °F 28.88 in Calm     55% 0 in 892.50 W/m2 CLR
12:34 59.2 °F 42 °F 28.85 in Calm     53% 0 in 892.50 W/m2 CLR
12:39 59.5 °F 42.4 °F 28.85 in Calm     53% 0 in 892.50 W/m2 CLR
12:44 59.5 °F 42.4 °F 28.85 in Calm     53% 0 in 892.50 W/m2 CLR
12:49 59.7 °F 41 °F 28.85 in Calm     50% 0 in 891.50 W/m2 CLR
12:54 59.4 °F 41.7 °F 28.85 in Calm     52% 0 in 891.50 W/m2 CLR
12:59 59.7 °F 41.6 °F 28.85 in Calm     51% 0 in 891.50 W/m2 CLR
13:04 60.3 °F 42 °F 28.85 in Calm     51% 0 in 891.50 W/m2 FEW
13:09 60.3 °F 42 °F 28.85 in Calm     51% 0 in 891.50 W/m2 FEW
13:14 60.4 °F 41.7 °F 28.85 in Calm     50% 0 in 891.50 W/m2 FEW
13:19 60.4 °F 41.7 °F 28.85 in Calm     50% 0 in 891.50 W/m2 FEW
13:24 60.8 °F 42 °F 28.85 in Calm     50% 0 in 894.60 W/m2 FEW
13:29 61.5 °F 43.2 °F 28.85 in Calm     51% 0 in 894.60 W/m2 FEW
13:34 60.8 °F 42 °F 28.85 in Calm     50% 0 in 894.60 W/m2 FEW
13:39 60.4 °F 41.7 °F 28.85 in Calm     50% 0 in 891.50 W/m2 FEW
13:44 60.6 °F 42.4 °F 28.85 in Calm     51% 0 in 891.50 W/m2 FEW
13:49 60.6 °F 42.4 °F 28.85 in Calm     51% 0 in 550.00 W/m2 FEW
13:54 61.7 °F 42.3 °F 28.82 in Calm     49% 0 in 856.20 W/m2 FEW
13:59 61.5 °F 42.7 °F 28.82 in Calm     50% 0 in 839.00 W/m2 FEW
14:04 61.3 °F 42.5 °F 28.82 in Calm     50% 0 in 835.00 W/m2 CLR
14:09 61.3 °F 42 °F 28.82 in Calm     49% 0 in 605.70 W/m2 CLR
14:14 61.2 °F 41.8 °F 28.82 in Calm     49% 0 in 473.40 W/m2 CLR
14:19 61.2 °F 41.8 °F 28.82 in Calm     49% 0 in 473.40 W/m2 CLR
14:24 61.3 °F 42 °F 28.82 in Calm     49% 0 in 602.70 W/m2 CLR
14:29 61.2 °F 42.4 °F 28.82 in Calm     50% 0 in 885.50 W/m2 CLR
14:34 61.2 °F 42.4 °F 28.82 in Calm     50% 0 in 885.50 W/m2 CLR
14:39 61.2 °F 41.3 °F 28.82 in Calm     48% 0 in 799.60 W/m2 CLR
14:44 61 °F 41.1 °F 28.82 in Calm     48% 0 in 330.00 W/m2 CLR
14:49 60.3 °F 40.5 °F 28.82 in Calm     48% 0 in 337.00 W/m2 CLR
14:54 60.4 °F 40.6 °F 28.82 in Calm     48% 0 in 398.60 W/m2 CLR
14:59 60.3 °F 39.9 °F 28.82 in Calm     47% 0 in 349.20 W/m2 CLR
15:04 60.3 °F 39.9 °F 28.79 in Calm     47% 0 in 358.20 W/m2 CLR
15:09 60.3 °F 39.9 °F 28.79 in Calm     47% 0 in 358.20 W/m2 CLR
15:14 60.3 °F 40.5 °F 28.82 in Calm     48% 0 in 469.00 W/m2 CLR
15:19 60.1 °F 40.3 °F 28.82 in Calm     48% 0 in 312.80 W/m2 CLR
15:20 60.3 °F 39.9 °F 28.82 in Calm     47% 0 in 304.70 W/m2 CLR
15:23 60.3 °F 39.9 °F 28.82 in Calm     47% 0 in 304.70 W/m2 CLR
15:29 59.5 °F 39.8 °F 28.82 in Calm     48% 0 in 313.80 W/m2 CLR
15:34 59.5 °F 39.8 °F 28.82 in Calm     48% 0 in 313.80 W/m2 CLR
15:39 60.3 °F 40.5 °F 28.82 in Calm     48% 0 in 304.70 W/m2 CLR
15:44 59.4 °F 39.7 °F 28.82 in Calm     48% 0 in 333.00 W/m2 CLR
15:49 59.5 °F 38.7 °F 28.82 in Calm     46% 0 in 689.50 W/m2 CLR
15:54 59.4 °F 37.4 °F 28.82 in Calm     44% 0 in 338.00 W/m2 CLR
15:59 59.4 °F 37.4 °F 28.82 in Calm     44% 0 in 338.00 W/m2 CLR
16:04 59.4 °F 38 °F 28.82 in Calm     45% 0 in 318.80 W/m2 SCT
16:09 59.4 °F 38.6 °F 28.82 in Calm     46% 0 in 386.50 W/m2 SCT
16:14 59.4 °F 38.6 °F 28.82 in Calm     46% 0 in 386.50 W/m2 SCT
16:19 59.4 °F 38.6 °F 28.82 in Calm     46% 0 in 386.50 W/m2 SCT
16:24 59 °F 38.2 °F 28.82 in Calm     46% 0 in 317.80 W/m2 SCT
16:29 59 °F 39.3 °F 28.82 in Calm     48% 0 in 299.70 W/m2 SCT
16:34 59 °F 39.3 °F 28.82 in Calm     48% 0 in 299.70 W/m2 SCT
16:39 58.6 °F 39 °F 28.82 in Calm     48% 0 in 293.00 W/m2 SCT
16:44 58.6 °F 39 °F 28.82 in Calm     48% 0 in 282.50 W/m2 SCT
16:49 57.4 °F 38.4 °F 28.82 in Calm     49% 0 in 278.40 W/m2 SCT
16:54 57 °F 39.1 °F 28.85 in Calm     51% 0 in 282.50 W/m2 SCT
16:59 56.8 °F 38.9 °F 28.85 in Calm     51% 0 in 288.60 W/m2 SCT
17:04 56.7 °F 38.2 °F 28.82 in Calm     50% 0 in 293.60 W/m2 BKN
17:09 56.7 °F 39.2 °F 28.85 in Calm     52% 0 in 280.50 W/m2 BKN
17:14 56.5 °F 39.5 °F 28.85 in Calm     53% 0 in 277.40 W/m2 BKN
17:19 56.5 °F 39.5 °F 28.85 in Calm     53% 0 in 277.40 W/m2 BKN
17:24 56.7 °F 39.2 °F 28.85 in Calm     52% 0 in 280.50 W/m2 BKN
17:29 56.7 °F 38.2 °F 28.82 in Calm     50% 0 in 293.60 W/m2 BKN
17:34 55.8 °F 38.9 °F 28.85 in Calm     53% 0 in 251.20 W/m2 BKN
17:39 55.6 °F 38.7 °F 28.85 in Calm     53% 0 in 249.20 W/m2 BKN
17:44 55.6 °F 38.7 °F 28.85 in Calm     53% 0 in 249.20 W/m2 BKN
17:49 55.2 °F 38.4 °F 28.85 in Calm     53% 0 in 222.90 W/m2 BKN
17:54 54.9 °F 38.5 °F 28.88 in Calm     54% 0 in 204.70 W/m2 BKN
17:59 54.7 °F 38.4 °F 28.88 in Calm     54% 0 in 196.60 W/m2 BKN
18:03 54.3 °F 38 °F 28.88 in Calm     54% 0 in 173.40 W/m2 BKN
18:09 54.3 °F 38 °F 28.88 in Calm     54% 0 in 173.40 W/m2 BKN
18:14 54 °F 38.1 °F 28.88 in Calm     55% 0 in 135.00 W/m2 BKN
18:18 53.4 °F 37.6 °F 28.88 in Calm     55% 0 in 0.00 W/m2 BKN
18:34 53.4 °F 37.6 °F 28.88 in Calm     55% 0 in 0.00 W/m2 BKN
18:39 51.8 °F 37.9 °F 28.88 in Calm     59% 0 in 0.00 W/m2 BKN
18:44 51.8 °F 37.9 °F 28.88 in Calm     59% 0 in 0.00 W/m2 BKN
18:49 51.4 °F 37.6 °F 28.88 in Calm     59% 0 in 0.00 W/m2 BKN
18:54 50.9 °F 37.5 °F 28.88 in Calm     60% 0 in 0.00 W/m2 BKN
18:59 50.5 °F 37.6 °F 28.88 in Calm     61% 0 in 0.00 W/m2 BKN
19:04 50.2 °F 38.1 °F 28.91 in Calm     63% 0 in 0.00 W/m2 FEW
19:09 49.6 °F 37.6 °F 28.91 in Calm     63% 0 in 0.00 W/m2 FEW
19:14 49.1 °F 37.8 °F 28.91 in Calm     65% 0 in 0.00 W/m2 FEW
19:19 48.6 °F 38.5 °F 28.91 in Calm     68% 0 in 0.00 W/m2 FEW
19:24 47.8 °F 38.2 °F 28.91 in Calm     69% 0 in 0.00 W/m2 FEW
19:29 46.8 °F 37.9 °F 28.91 in Calm     71% 0 in 0.00 W/m2 FEW
19:34 46.2 °F 37.3 °F 28.91 in Calm     71% 0 in 0.00 W/m2 FEW
19:39 46 °F 37.5 °F 28.91 in Calm     72% 0 in 0.00 W/m2 FEW
19:44 45.3 °F 37.2 °F 28.91 in Calm     73% 0 in 0.00 W/m2 FEW
19:49 45.3 °F 37.2 °F 28.91 in Calm     73% 0 in 0.00 W/m2 FEW
19:54 44.4 °F 37.3 °F 28.88 in Calm     76% 0 in 0.00 W/m2 FEW
19:59 44.1 °F 37 °F 28.88 in Calm     76% 0 in 0.00 W/m2 FEW
20:04 43.7 °F 37 °F 28.88 in Calm     77% 0 in 0.00 W/m2 SCT
20:09 43.3 °F 36.9 °F 28.88 in Calm     78% 0 in 0.00 W/m2 SCT
20:14 43.2 °F 37.1 °F 28.85 in Calm     79% 0 in 0.00 W/m2 SCT
20:19 43 °F 37.2 °F 28.85 in Calm     80% 0 in 0.00 W/m2 SCT
20:24 43.2 °F 37.1 °F 28.85 in Calm     79% 0 in 0.00 W/m2 SCT
20:29 43.5 °F 37.1 °F 28.85 in Calm     78% 0 in 0.00 W/m2 SCT
20:34 43.9 °F 37.1 °F 28.88 in Calm     77% 0 in 0.00 W/m2 SCT
20:39 44.2 °F 37.2 °F 28.88 in Calm     76% 0 in 0.00 W/m2 SCT
20:44 44.8 °F 37 °F 28.88 in Calm     74% 0 in 0.00 W/m2 SCT
20:49 45.1 °F 37.3 °F 28.88 in Calm     74% 0 in 0.00 W/m2 SCT
20:53 45.3 °F 37.2 °F 28.88 in Calm     73% 0 in 0.00 W/m2 SCT
20:59 45.3 °F 37.2 °F 28.88 in Calm     73% 0 in 0.00 W/m2 SCT
21:04 45.9 °F 37.7 °F 28.91 in Calm     73% 0 in 0.00 W/m2 OVC
21:09 45.9 °F 37.3 °F 28.91 in Calm     72% 0 in 0.00 W/m2 OVC
21:14 46 °F 37.5 °F 28.91 in Calm     72% 0 in 0.00 W/m2 OVC
21:19 46.2 °F 37.3 °F 28.91 in Calm     71% 0 in 0.00 W/m2 OVC
21:24 46.2 °F 37.3 °F 28.91 in Calm     71% 0 in 0.00 W/m2 OVC
21:29 46.2 °F 37.3 °F 28.91 in Calm     71% 0 in 0.00 W/m2 OVC
21:34 46.2 °F 37.3 °F 28.91 in Calm     71% 0 in 0.00 W/m2 OVC
21:39 46.2 °F 37.3 °F 28.91 in Calm     71% 0 in 0.00 W/m2 OVC
21:44 46.4 °F 37.1 °F 28.94 in Calm     70% 0 in 0.00 W/m2 OVC
21:49 46.4 °F 36.8 °F 28.94 in Calm     69% 0 in 0.00 W/m2 OVC
21:54 46.4 °F 36.4 °F 28.94 in Calm     68% 0 in 0.00 W/m2 OVC
Juneau County Weather
Compliments of Weather Underground - 4.75 mb